Time;durP1;ratioP1;P1;durP2;ratioP2;P2;SDS_P1;SDS_P2;PMS_P1;PMS_P2;Temp;Humidity;BMP_temperature;BMP_pressure;BME280_temperature;BME280_humidity;BME280_pressure;Samples;Min_cycle;Max_cycle;Signal;HPM_P1;HPM_P2
2021/06/22 00:01:37;;;;;;;11.10;6.10;;;;;;;;;;5113700;28;20435;-73
2021/06/22 00:04:03;;;;;;;10.30;6.83;;;;;;;;;;5113741;28;20408;-75
2021/06/22 00:06:29;;;;;;;9.43;6.75;;;;;;;;;;5113707;28;20587;-72
2021/06/22 00:08:55;;;;;;;8.13;6.90;;;;;;;;;;5113571;28;20220;-71
2021/06/22 00:11:22;;;;;;;11.38;6.50;;;;;;;;;;5113689;28;20179;-74
2021/06/22 00:13:48;;;;;;;9.50;6.37;;;;;;;;;;5093981;28;20220;-75
2021/06/22 00:16:14;;;;;;;8.73;6.30;;;;;;;;;;5093227;28;20894;-72
2021/06/22 00:18:40;;;;;;;9.18;6.10;;;;;;;;;;5096172;28;20210;-71
2021/06/22 00:21:06;;;;;;;10.50;7.10;;;;;;;;;;5097250;28;20202;-73
2021/06/22 00:23:32;;;;;;;10.27;6.13;;;;;;;;;;5093131;28;20517;-72
2021/06/22 00:25:59;;;;;;;12.23;6.25;;;;;;;;;;5092903;28;20422;-75
2021/06/22 00:28:25;;;;;;;11.37;6.20;;;;;;;;;;5099315;28;20177;-74
2021/06/22 00:30:51;;;;;;;7.88;6.43;;;;;;;;;;5097418;28;20417;-74
2021/06/22 00:33:17;;;;;;;13.00;6.35;;;;;;;;;;5092895;28;20594;-72
2021/06/22 00:35:43;;;;;;;10.80;6.10;;;;;;;;;;5092951;28;20183;-73
2021/06/22 00:38:09;;;;;;;10.53;6.40;;;;;;;;;;5093165;28;20294;-74
2021/06/22 00:40:35;;;;;;;10.02;6.47;;;;;;;;;;5093180;28;20501;-73
2021/06/22 00:43:01;;;;;;;9.97;6.93;;;;;;;;;;5092798;28;20223;-75
2021/06/22 00:45:32;;;;;;;13.05;6.75;;;;;;;;;;5093216;28;20496;-72
2021/06/22 00:47:58;;;;;;;10.60;6.10;;;;;;;;;;5103462;28;20254;-72
2021/06/22 00:50:25;;;;;;;9.45;6.72;;;;;;;;;;5113409;28;20769;-75
2021/06/22 00:52:51;;;;;;;10.10;7.07;;;;;;;;;;5112971;28;20222;-71
2021/06/22 00:55:30;;;;;;;11.07;7.57;;;;;;;;;;5113457;28;20535;-72
2021/06/22 00:57:59;;;;;;;12.50;6.63;;;;;;;;;;5113203;28;20591;-75
2021/06/22 01:00:25;;;;;;;7.95;6.65;;;;;;;;;;5113437;28;20261;-73
2021/06/22 01:02:53;;;;;;;11.15;7.00;;;;;;;;;;5113045;28;20199;-76
2021/06/22 01:05:19;;;;;;;10.83;6.87;;;;;;;;;;5113371;28;20175;-76
2021/06/22 01:07:45;;;;;;;9.90;6.82;;;;;;;;;;5112905;28;20436;-72
2021/06/22 01:10:11;;;;;;;10.60;6.93;;;;;;;;;;5112990;28;20174;-75
2021/06/22 01:12:37;;;;;;;9.35;6.50;;;;;;;;;;5103665;28;20434;-72
2021/06/22 01:15:10;;;;;;;8.45;7.18;;;;;;;;;;5092430;28;20568;-74
2021/06/22 01:17:36;;;;;;;12.70;7.50;;;;;;;;;;5091281;28;20641;-73
2021/06/22 01:20:03;;;;;;;8.67;6.63;;;;;;;;;;5099888;28;20428;-74
2021/06/22 01:22:29;;;;;;;13.27;7.05;;;;;;;;;;5092526;28;20425;-75
2021/06/22 01:24:57;;;;;;;10.20;7.00;;;;;;;;;;5092579;28;20183;-75
2021/06/22 01:27:23;;;;;;;12.32;6.85;;;;;;;;;;5092755;28;20762;-74
2021/06/22 01:29:50;;;;;;;13.23;6.70;;;;;;;;;;5103196;28;20619;-75
2021/06/22 01:32:16;;;;;;;8.70;6.77;;;;;;;;;;5092559;28;20548;-75
2021/06/22 01:34:42;;;;;;;16.43;6.70;;;;;;;;;;5092475;28;20457;-73
2021/06/22 01:37:09;;;;;;;7.90;6.17;;;;;;;;;;5092587;28;20788;-71
2021/06/22 01:39:35;;;;;;;13.80;6.60;;;;;;;;;;5094739;28;20416;-74
2021/06/22 01:42:01;;;;;;;8.85;6.80;;;;;;;;;;5096307;28;20433;-73
2021/06/22 01:44:28;;;;;;;8.33;6.17;;;;;;;;;;5095837;28;20237;-76
2021/06/22 01:46:54;;;;;;;14.23;6.63;;;;;;;;;;5097600;28;20437;-72
2021/06/22 01:49:20;;;;;;;9.98;6.47;;;;;;;;;;5116270;28;20421;-74
2021/06/22 01:51:46;;;;;;;15.27;6.65;;;;;;;;;;5113078;28;20704;-74
2021/06/22 01:54:12;;;;;;;9.68;6.57;;;;;;;;;;5105712;28;20194;-73
2021/06/22 01:56:41;;;;;;;11.17;6.93;;;;;;;;;;5116397;28;20236;-73
2021/06/22 01:59:07;;;;;;;7.35;6.38;;;;;;;;;;5115929;28;20401;-74
2021/06/22 02:01:33;;;;;;;9.57;6.77;;;;;;;;;;5116173;28;20197;-74
2021/06/22 02:03:59;;;;;;;7.30;5.47;;;;;;;;;;5115971;27;20405;-72
2021/06/22 02:06:25;;;;;;;9.70;5.83;;;;;;;;;;5115903;28;20793;-71
2021/06/22 02:08:51;;;;;;;11.68;6.45;;;;;;;;;;5115823;28;20417;-72
2021/06/22 02:11:17;;;;;;;11.18;6.57;;;;;;;;;;5115885;28;20179;-73
2021/06/22 02:13:43;;;;;;;11.27;5.80;;;;;;;;;;5115673;28;20243;-73
2021/06/22 02:16:09;;;;;;;6.00;5.43;;;;;;;;;;5115634;28;20175;-74
2021/06/22 02:18:35;;;;;;;12.38;6.60;;;;;;;;;;5112492;28;20468;-73
2021/06/22 02:21:04;;;;;;;12.00;6.07;;;;;;;;;;5095745;28;20540;-74
2021/06/22 02:23:30;;;;;;;12.50;6.70;;;;;;;;;;5095071;28;20191;-73
2021/06/22 02:25:56;;;;;;;11.70;6.10;;;;;;;;;;5095526;28;20402;-72
2021/06/22 02:28:23;;;;;;;9.10;5.30;;;;;;;;;;5101726;28;20420;-72
2021/06/22 02:30:54;;;;;;;12.63;6.17;;;;;;;;;;5097609;28;20421;-76
2021/06/22 02:33:20;;;;;;;9.57;6.13;;;;;;;;;;5094923;28;20428;-72
2021/06/22 02:35:46;;;;;;;9.32;5.63;;;;;;;;;;5095065;28;20244;-74
2021/06/22 02:38:13;;;;;;;8.55;6.35;;;;;;;;;;5095462;28;20183;-73
2021/06/22 02:40:40;;;;;;;8.95;6.45;;;;;;;;;;5094969;28;20172;-74
2021/06/22 02:43:06;;;;;;;9.43;5.90;;;;;;;;;;5094743;28;20308;-74
2021/06/22 02:45:34;;;;;;;9.50;6.47;;;;;;;;;;5094809;28;20410;-71
2021/06/22 02:48:00;;;;;;;11.70;6.47;;;;;;;;;;5105407;28;20651;-74
2021/06/22 02:50:26;;;;;;;10.52;6.13;;;;;;;;;;5114865;28;20179;-73
2021/06/22 02:52:53;;;;;;;6.28;5.63;;;;;;;;;;5114784;28;20198;-72
2021/06/22 02:55:19;;;;;;;7.83;5.40;;;;;;;;;;5096812;28;20203;-74
2021/06/22 02:57:46;;;;;;;8.73;5.78;;;;;;;;;;5094673;28;20463;-72
2021/06/22 03:00:13;;;;;;;9.23;5.97;;;;;;;;;;5094644;28;20566;-75
2021/06/22 03:02:39;;;;;;;9.23;5.07;;;;;;;;;;5094638;28;20449;-74
2021/06/22 03:05:05;;;;;;;8.50;5.97;;;;;;;;;;5092739;28;20191;-70
2021/06/22 03:07:31;;;;;;;8.25;5.85;;;;;;;;;;5094379;28;20444;-71
2021/06/22 03:09:57;;;;;;;7.80;6.07;;;;;;;;;;5094420;28;20175;-71
2021/06/22 03:12:23;;;;;;;9.40;5.77;;;;;;;;;;5094350;28;20929;-73
2021/06/22 03:14:49;;;;;;;8.07;5.83;;;;;;;;;;5093842;28;20461;-74
2021/06/22 03:17:16;;;;;;;10.33;6.63;;;;;;;;;;5094303;28;20420;-71
2021/06/22 03:19:42;;;;;;;10.90;6.00;;;;;;;;;;5101773;28;20418;-73
2021/06/22 03:22:08;;;;;;;12.07;6.75;;;;;;;;;;5094166;28;20286;-72
2021/06/22 03:24:34;;;;;;;11.30;5.93;;;;;;;;;;5093964;28;20207;-75
2021/06/22 03:27:00;;;;;;;8.70;6.67;;;;;;;;;;5094299;28;20179;-71
2021/06/22 03:29:26;;;;;;;6.15;5.55;;;;;;;;;;5105388;28;20441;-72
2021/06/22 03:31:52;;;;;;;9.20;7.07;;;;;;;;;;5093949;28;20202;-72
2021/06/22 03:34:19;;;;;;;8.25;6.40;;;;;;;;;;5092585;28;20203;-74
2021/06/22 03:36:45;;;;;;;9.40;6.43;;;;;;;;;;5094016;28;20175;-74
2021/06/22 03:39:11;;;;;;;8.07;6.20;;;;;;;;;;5093538;28;20902;-72
2021/06/22 03:41:37;;;;;;;7.40;5.97;;;;;;;;;;5093704;28;20430;-72
2021/06/22 03:44:04;;;;;;;7.77;5.70;;;;;;;;;;5093749;28;20805;-74
2021/06/22 03:46:30;;;;;;;8.27;5.40;;;;;;;;;;5093946;28;20470;-73
2021/06/22 03:48:56;;;;;;;6.87;5.50;;;;;;;;;;5112535;28;20206;-73
2021/06/22 03:51:24;;;;;;;13.37;6.23;;;;;;;;;;5113960;28;20413;-72
2021/06/22 03:53:50;;;;;;;13.75;5.80;;;;;;;;;;5108658;28;20449;-76
2021/06/22 03:56:16;;;;;;;10.20;5.40;;;;;;;;;;5093715;28;20175;-75
2021/06/22 03:58:42;;;;;;;7.32;5.00;;;;;;;;;;5093618;28;20171;-75
2021/06/22 04:01:08;;;;;;;10.40;5.37;;;;;;;;;;5093102;28;20247;-73
2021/06/22 04:03:34;;;;;;;7.25;5.38;;;;;;;;;;5093247;28;20440;-76
2021/06/22 04:06:01;;;;;;;16.13;5.68;;;;;;;;;;5093575;28;20640;-74
2021/06/22 04:08:27;;;;;;;9.80;5.80;;;;;;;;;;5093603;28;20202;-76
2021/06/22 04:10:54;;;;;;;7.70;5.45;;;;;;;;;;5093308;28;20432;-73
2021/06/22 04:13:20;;;;;;;7.27;5.60;;;;;;;;;;5092913;28;20191;-74
2021/06/22 04:15:46;;;;;;;9.40;5.50;;;;;;;;;;5091931;28;20892;-76
2021/06/22 04:18:12;;;;;;;8.83;5.50;;;;;;;;;;5093013;28;20416;-71
2021/06/22 04:20:39;;;;;;;13.07;5.55;;;;;;;;;;5100048;28;20410;-73
2021/06/22 04:23:05;;;;;;;8.10;5.05;;;;;;;;;;5093081;28;20195;-75
2021/06/22 04:25:31;;;;;;;7.45;4.68;;;;;;;;;;5092967;28;20228;-74
2021/06/22 04:27:59;;;;;;;12.50;5.90;;;;;;;;;;5096477;28;20181;-75
2021/06/22 04:30:25;;;;;;;10.07;5.10;;;;;;;;;;5100077;28;20453;-72
2021/06/22 04:32:51;;;;;;;9.73;5.95;;;;;;;;;;5093396;28;20439;-72
2021/06/22 04:35:17;;;;;;;12.85;5.40;;;;;;;;;;5093098;28;20191;-72
2021/06/22 04:37:44;;;;;;;7.87;4.97;;;;;;;;;;5093034;28;20647;-73
2021/06/22 04:40:10;;;;;;;10.55;5.20;;;;;;;;;;5093393;28;20736;-72
2021/06/22 04:42:36;;;;;;;7.95;5.75;;;;;;;;;;5093163;28;20194;-75
2021/06/22 04:45:02;;;;;;;10.57;5.38;;;;;;;;;;5092666;28;20236;-72
2021/06/22 04:47:28;;;;;;;10.55;5.13;;;;;;;;;;5099394;28;20535;-75
2021/06/22 04:49:54;;;;;;;6.70;5.30;;;;;;;;;;5113266;28;20266;-77
2021/06/22 04:52:20;;;;;;;7.77;5.30;;;;;;;;;;5113258;28;20428;-73
2021/06/22 04:54:46;;;;;;;8.60;5.00;;;;;;;;;;5099382;28;20472;-75
2021/06/22 04:57:17;;;;;;;13.27;6.50;;;;;;;;;;5092937;28;20402;-73
2021/06/22 04:59:43;;;;;;;8.70;5.57;;;;;;;;;;5092597;28;20408;-75
2021/06/22 05:02:09;;;;;;;8.15;5.00;;;;;;;;;;5093024;28;20516;-74
2021/06/22 05:04:36;;;;;;;9.65;5.32;;;;;;;;;;5092836;28;20175;-74
2021/06/22 05:07:02;;;;;;;7.57;5.10;;;;;;;;;;5092582;28;20271;-73
2021/06/22 05:09:28;;;;;;;8.32;5.03;;;;;;;;;;5092907;28;20417;-76
2021/06/22 05:11:54;;;;;;;8.90;4.73;;;;;;;;;;5092427;28;20207;-74
2021/06/22 05:14:20;;;;;;;7.53;5.33;;;;;;;;;;5096370;28;20514;-75
2021/06/22 05:16:48;;;;;;;12.98;5.45;;;;;;;;;;5096662;28;20838;-75
2021/06/22 05:19:15;;;;;;;7.97;4.53;;;;;;;;;;5103305;28;20605;-75
2021/06/22 05:21:41;;;;;;;9.40;5.47;;;;;;;;;;5096263;28;20278;-72
2021/06/22 05:24:07;;;;;;;7.55;5.13;;;;;;;;;;5096395;28;20421;-75
2021/06/22 05:26:33;;;;;;;10.00;5.30;;;;;;;;;;5096421;28;20171;-76
2021/06/22 05:28:59;;;;;;;8.27;5.03;;;;;;;;;;5106685;28;20261;-74
2021/06/22 05:31:25;;;;;;;6.43;4.75;;;;;;;;;;5096265;28;20578;-71
2021/06/22 05:33:51;;;;;;;8.15;4.78;;;;;;;;;;5095951;28;20203;-75
2021/06/22 05:36:17;;;;;;;8.37;5.50;;;;;;;;;;5096079;28;20186;-76
2021/06/22 05:38:43;;;;;;;8.85;4.93;;;;;;;;;;5096182;28;20438;-73
2021/06/22 05:41:09;;;;;;;10.02;5.35;;;;;;;;;;5096289;28;20179;-74
2021/06/22 05:43:35;;;;;;;7.03;4.67;;;;;;;;;;5096349;28;20187;-74
2021/06/22 05:46:01;;;;;;;16.20;5.78;;;;;;;;;;5095718;28;20464;-75
2021/06/22 05:48:27;;;;;;;10.90;5.33;;;;;;;;;;5110336;28;20167;-73
2021/06/22 05:50:53;;;;;;;11.73;6.65;;;;;;;;;;5116339;28;20550;-72
2021/06/22 05:53:19;;;;;;;9.03;5.40;;;;;;;;;;5102270;28;20668;-72
2021/06/22 05:55:46;;;;;;;8.13;5.20;;;;;;;;;;5095894;28;20952;-74
2021/06/22 05:58:13;;;;;;;9.97;5.57;;;;;;;;;;5095490;28;20523;-73
2021/06/22 06:00:39;;;;;;;8.90;4.50;;;;;;;;;;5095810;28;20497;-75
2021/06/22 06:03:06;;;;;;;5.63;4.27;;;;;;;;;;5095331;28;20541;-73
2021/06/22 06:05:32;;;;;;;10.00;4.80;;;;;;;;;;5096643;28;20491;-73
2021/06/22 06:07:58;;;;;;;8.73;5.03;;;;;;;;;;5100886;28;20433;-75
2021/06/22 06:10:25;;;;;;;8.10;5.20;;;;;;;;;;5095408;28;20473;-76
2021/06/22 06:12:51;;;;;;;8.18;5.00;;;;;;;;;;5094863;28;20429;-73
2021/06/22 06:15:18;;;;;;;10.70;5.67;;;;;;;;;;5095830;28;20648;-74
2021/06/22 06:17:44;;;;;;;8.40;4.80;;;;;;;;;;5095010;28;20800;-73
2021/06/22 06:20:11;;;;;;;17.33;6.17;;;;;;;;;;5102871;28;20739;-74
2021/06/22 06:22:37;;;;;;;8.87;6.17;;;;;;;;;;5095028;28;20426;-72
2021/06/22 06:25:05;;;;;;;11.90;6.73;;;;;;;;;;5094413;28;20621;-74
2021/06/22 06:30:09;;;;;;;8.00;4.40;;;;;;;;;;5095267;28;20413;-73
2021/06/22 06:32:35;;;;;;;6.20;4.50;;;;;;;;;;5094820;28;20465;-74
2021/06/22 06:35:01;;;;;;;7.30;4.20;;;;;;;;;;5095074;28;20417;-76
2021/06/22 06:37:27;;;;;;;11.23;4.17;;;;;;;;;;5108583;28;20421;-73
2021/06/22 06:39:53;;;;;;;9.83;4.10;;;;;;;;;;5096844;28;21029;-73
2021/06/22 06:42:19;;;;;;;6.33;4.43;;;;;;;;;;5098254;28;20448;-76
2021/06/22 06:44:45;;;;;;;7.00;3.70;;;;;;;;;;5097083;27;21256;-74
2021/06/22 06:47:11;;;;;;;4.87;3.20;;;;;;;;;;5104740;28;20426;-72
2021/06/22 06:49:37;;;;;;;4.60;3.70;;;;;;;;;;5097879;28;20433;-73
2021/06/22 06:52:04;;;;;;;4.90;4.17;;;;;;;;;;5095504;28;20539;-76
2021/06/22 06:54:30;;;;;;;7.17;3.90;;;;;;;;;;5088867;28;20439;-73
2021/06/22 06:56:56;;;;;;;5.97;4.23;;;;;;;;;;5092877;28;20445;-73
2021/06/22 06:59:22;;;;;;;9.70;4.03;;;;;;;;;;5090596;28;20419;-73
2021/06/22 07:01:48;;;;;;;5.33;3.90;;;;;;;;;;5095188;27;20447;-75
2021/06/22 07:04:14;;;;;;;4.60;4.10;;;;;;;;;;5090369;28;20462;-73
2021/06/22 07:06:40;;;;;;;6.00;4.30;;;;;;;;;;5090532;28;20427;-73
2021/06/22 07:09:07;;;;;;;8.30;4.20;;;;;;;;;;5090681;28;20441;-74
2021/06/22 07:11:33;;;;;;;6.83;3.97;;;;;;;;;;5090433;28;20868;-73
2021/06/22 07:13:59;;;;;;;7.67;4.00;;;;;;;;;;5090501;28;20416;-74
2021/06/22 07:16:25;;;;;;;7.20;3.73;;;;;;;;;;5090539;28;20421;-74
2021/06/22 07:18:51;;;;;;;5.90;3.70;;;;;;;;;;5095050;28;20928;-74
2021/06/22 07:21:19;;;;;;;9.03;3.70;;;;;;;;;;5091595;28;20425;-74
2021/06/22 07:23:45;;;;;;;5.00;3.60;;;;;;;;;;5090075;28;20441;-72
2021/06/22 07:26:11;;;;;;;6.37;3.87;;;;;;;;;;5090381;28;20421;-74
2021/06/22 07:28:37;;;;;;;5.47;3.93;;;;;;;;;;5098379;28;20454;-75
2021/06/22 07:31:04;;;;;;;5.33;4.10;;;;;;;;;;5093617;28;20471;-72
2021/06/22 07:33:30;;;;;;;7.13;4.30;;;;;;;;;;5097012;28;21098;-73
2021/06/22 07:35:56;;;;;;;5.40;3.20;;;;;;;;;;5090610;28;20777;-73
2021/06/22 07:38:22;;;;;;;7.20;4.10;;;;;;;;;;5110066;28;20439;-73
2021/06/22 07:40:48;;;;;;;5.33;3.77;;;;;;;;;;5091096;28;20836;-75
2021/06/22 07:43:15;;;;;;;4.53;3.30;;;;;;;;;;5089726;28;20529;-70
2021/06/22 07:45:41;;;;;;;7.60;3.87;;;;;;;;;;5090031;28;20464;-70
2021/06/22 07:48:08;;;;;;;7.33;3.87;;;;;;;;;;5103135;28;20423;-74
2021/06/22 07:50:34;;;;;;;8.73;4.00;;;;;;;;;;5089648;28;20424;-76
2021/06/22 07:53:01;;;;;;;6.33;4.03;;;;;;;;;;5089562;28;20528;-73
2021/06/22 07:55:27;;;;;;;6.83;4.40;;;;;;;;;;5089887;28;20414;-75
2021/06/22 07:57:54;;;;;;;6.00;4.03;;;;;;;;;;5089555;28;20421;-72
2021/06/22 08:00:43;;;;;;;4.70;3.90;;;;;;;;;;5089702;28;20878;-76
2021/06/22 08:03:10;;;;;;;5.80;3.80;;;;;;;;;;5089438;28;20951;-76
2021/06/22 08:05:37;;;;;;;5.93;4.23;;;;;;;;;;5089617;28;20469;-72
2021/06/22 08:08:03;;;;;;;5.00;3.50;;;;;;;;;;5089247;28;20437;-78
2021/06/22 08:10:30;;;;;;;5.73;3.90;;;;;;;;;;5089632;28;20441;-73
2021/06/22 08:12:57;;;;;;;7.30;3.60;;;;;;;;;;5089320;28;20432;-75
2021/06/22 08:15:23;;;;;;;3.97;3.57;;;;;;;;;;5089448;28;20453;-73
2021/06/22 08:17:49;;;;;;;5.13;4.13;;;;;;;;;;5089567;28;20453;-74
2021/06/22 08:20:15;;;;;;;4.67;3.93;;;;;;;;;;5092303;28;20999;-74
2021/06/22 08:22:42;;;;;;;6.13;4.47;;;;;;;;;;5092946;28;20438;-72
2021/06/22 08:25:08;;;;;;;4.67;3.43;;;;;;;;;;5096888;28;20471;-73
2021/06/22 08:27:34;;;;;;;8.13;4.43;;;;;;;;;;5089153;28;20424;-72
2021/06/22 08:30:00;;;;;;;6.43;4.67;;;;;;;;;;5096869;28;20413;-73
2021/06/22 08:32:26;;;;;;;7.07;4.07;;;;;;;;;;5089772;28;20582;-76
2021/06/22 08:34:52;;;;;;;6.33;4.00;;;;;;;;;;5094862;28;20417;-72
2021/06/22 08:37:18;;;;;;;6.50;3.70;;;;;;;;;;5094986;28;20423;-74
2021/06/22 08:39:44;;;;;;;4.60;3.97;;;;;;;;;;5109524;28;20819;-72
2021/06/22 08:42:12;;;;;;;9.90;3.60;;;;;;;;;;5103661;28;20479;-76
2021/06/22 08:44:39;;;;;;;6.07;4.10;;;;;;;;;;5088639;28;20541;-72
2021/06/22 08:47:05;;;;;;;7.33;3.80;;;;;;;;;;5092056;28;20481;-73
2021/06/22 08:49:33;;;;;;;7.80;4.00;;;;;;;;;;5093359;28;20453;-71
2021/06/22 08:52:00;;;;;;;7.97;4.17;;;;;;;;;;5093103;28;20436;-74
2021/06/22 08:54:26;;;;;;;5.20;3.87;;;;;;;;;;5093173;28;20425;-72
2021/06/22 08:56:54;;;;;;;4.40;3.37;;;;;;;;;;5093077;28;20495;-71
2021/06/22 08:59:21;;;;;;;5.53;3.47;;;;;;;;;;5092919;28;20409;-74
2021/06/22 09:01:47;;;;;;;5.63;3.87;;;;;;;;;;5093149;28;21154;-74
2021/06/22 09:04:13;;;;;;;5.93;3.83;;;;;;;;;;5092929;28;20564;-75
2021/06/22 09:06:39;;;;;;;4.70;3.53;;;;;;;;;;5091226;28;20521;-74
2021/06/22 09:09:07;;;;;;;5.20;3.27;;;;;;;;;;5092964;28;20425;-73
2021/06/22 09:11:33;;;;;;;8.00;3.50;;;;;;;;;;5091300;28;20517;-76
2021/06/22 09:14:02;;;;;;;4.43;3.40;;;;;;;;;;5092737;28;20416;-74
2021/06/22 09:16:28;;;;;;;4.70;3.73;;;;;;;;;;5092674;28;20767;-76
2021/06/22 09:19:01;;;;;;;6.00;3.50;;;;;;;;;;5092383;28;20414;-76
2021/06/22 09:21:27;;;;;;;9.17;3.60;;;;;;;;;;5092632;28;20409;-76
2021/06/22 09:23:54;;;;;;;7.50;3.90;;;;;;;;;;5092510;28;20518;-73
2021/06/22 09:26:30;;;;;;;5.33;3.60;;;;;;;;;;5092575;28;20499;-75
2021/06/22 09:29:09;;;;;;;7.23;4.10;;;;;;;;;;5101348;28;20443;-75
2021/06/22 09:31:35;;;;;;;5.00;3.43;;;;;;;;;;5092371;28;20512;-72
2021/06/22 09:34:01;;;;;;;6.73;3.97;;;;;;;;;;5096488;28;20417;-73
2021/06/22 09:36:31;;;;;;;7.93;3.70;;;;;;;;;;5112891;28;20417;-74
2021/06/22 09:39:06;;;;;;;7.27;3.30;;;;;;;;;;5112526;28;20447;-74
2021/06/22 09:41:33;;;;;;;8.70;3.60;;;;;;;;;;5112804;28;20416;-76
2021/06/22 09:44:01;;;;;;;4.20;3.50;;;;;;;;;;5093237;28;20954;-74
2021/06/22 09:46:34;;;;;;;5.03;3.00;;;;;;;;;;5092355;28;20449;-72
2021/06/22 09:49:01;;;;;;;4.97;3.50;;;;;;;;;;5111519;28;20403;-73
2021/06/22 09:51:32;;;;;;;6.30;4.03;;;;;;;;;;5112682;28;20474;-71
2021/06/22 09:54:12;;;;;;;6.27;3.77;;;;;;;;;;5112979;28;20859;-76
2021/06/22 09:56:38;;;;;;;6.00;3.27;;;;;;;;;;5112188;28;20415;-72
2021/06/22 09:59:08;;;;;;;6.50;3.87;;;;;;;;;;5111080;28;20416;-75
2021/06/22 10:01:35;;;;;;;5.17;3.43;;;;;;;;;;5112297;27;20771;-74
2021/06/22 10:04:18;;;;;;;6.17;3.80;;;;;;;;;;5112046;28;20413;-76
2021/06/22 10:06:48;;;;;;;6.90;3.80;;;;;;;;;;5111892;28;20489;-73
2021/06/22 10:09:16;;;;;;;7.03;4.17;;;;;;;;;;5112100;27;20424;-74
2021/06/22 10:11:42;;;;;;;6.13;3.20;;;;;;;;;;5110149;28;20559;-75
2021/06/22 10:14:09;;;;;;;5.20;3.47;;;;;;;;;;5091631;28;20472;-74
2021/06/22 10:16:36;;;;;;;6.40;3.20;;;;;;;;;;5091755;28;20420;-72
2021/06/22 10:19:06;;;;;;;5.00;3.10;;;;;;;;;;5091298;28;20417;-73
2021/06/22 10:21:34;;;;;;;5.93;3.43;;;;;;;;;;5091352;28;20415;-76
2021/06/22 10:24:00;;;;;;;6.60;3.60;;;;;;;;;;5091416;28;20779;-75
2021/06/22 10:26:28;;;;;;;8.57;3.87;;;;;;;;;;5091432;28;20418;-73
2021/06/22 10:28:55;;;;;;;7.07;4.10;;;;;;;;;;5101072;28;20409;-75
2021/06/22 10:31:21;;;;;;;7.40;4.50;;;;;;;;;;5091311;28;20766;-74
2021/06/22 10:33:47;;;;;;;4.50;3.40;;;;;;;;;;5092128;28;20422;-74
2021/06/22 10:36:33;;;;;;;9.67;4.20;;;;;;;;;;5095205;28;20902;-76
2021/06/22 10:39:04;;;;;;;5.13;3.50;;;;;;;;;;5101682;28;21043;-74
2021/06/22 10:41:34;;;;;;;8.03;3.73;;;;;;;;;;5096666;28;20452;-74
2021/06/22 10:44:00;;;;;;;6.90;3.70;;;;;;;;;;5091389;28;20740;-74
2021/06/22 10:46:26;;;;;;;4.60;3.43;;;;;;;;;;5091017;28;20422;-76
2021/06/22 10:48:53;;;;;;;7.53;4.10;;;;;;;;;;5109179;28;20572;-75
2021/06/22 10:51:34;;;;;;;6.83;2.90;;;;;;;;;;5107047;28;20416;-75
2021/06/22 10:54:00;;;;;;;4.87;3.10;;;;;;;;;;5091236;28;20405;-75
2021/06/22 10:56:28;;;;;;;3.93;3.17;;;;;;;;;;5098420;28;20772;-75
2021/06/22 10:59:12;;;;;;;8.50;3.87;;;;;;;;;;5091236;28;20422;-70
2021/06/22 11:01:53;;;;;;;7.70;3.90;;;;;;;;;;5094294;28;20468;-76
2021/06/22 11:04:20;;;;;;;5.53;3.30;;;;;;;;;;5090666;28;20469;-74
2021/06/22 11:07:01;;;;;;;5.30;3.30;;;;;;;;;;5090775;28;20429;-74
2021/06/22 11:09:27;;;;;;;6.30;3.10;;;;;;;;;;5090453;28;20502;-72
2021/06/22 11:12:12;;;;;;;5.30;3.20;;;;;;;;;;5090474;28;20433;-74
2021/06/22 11:14:57;;;;;;;8.10;3.27;;;;;;;;;;5092662;28;20475;-78
2021/06/22 11:17:41;;;;;;;6.97;3.23;;;;;;;;;;5090434;28;20796;-75
2021/06/22 11:20:08;;;;;;;4.83;2.80;;;;;;;;;;5090294;28;20452;-77
2021/06/22 11:22:52;;;;;;;4.67;3.13;;;;;;;;;;5090330;28;20548;-75
2021/06/22 11:25:18;;;;;;;6.53;4.03;;;;;;;;;;5090308;28;20461;-74
2021/06/22 11:28:03;;;;;;;6.83;2.83;;;;;;;;;;5091012;28;20412;-73
2021/06/22 11:30:48;;;;;;;11.30;3.00;;;;;;;;;;5097725;28;20546;-76
2021/06/22 11:33:34;;;;;;;5.73;2.83;;;;;;;;;;5090725;28;21286;-75
2021/06/22 11:36:19;;;;;;;4.27;3.00;;;;;;;;;;5090492;28;20409;-76
2021/06/22 11:38:45;;;;;;;4.00;2.43;;;;;;;;;;5110224;28;20769;-75
2021/06/22 11:41:11;;;;;;;4.90;2.57;;;;;;;;;;5089832;28;20409;-74
2021/06/22 11:43:38;;;;;;;3.80;2.50;;;;;;;;;;5089763;28;20429;-75
2021/06/22 11:46:22;;;;;;;4.20;2.50;;;;;;;;;;5089955;28;20510;-73
2021/06/22 11:48:58;;;;;;;4.63;2.13;;;;;;;;;;5107468;28;20440;-73
2021/06/22 11:51:43;;;;;;;4.80;2.70;;;;;;;;;;5110098;28;20407;-75
2021/06/22 11:54:09;;;;;;;4.90;2.73;;;;;;;;;;5110302;28;20743;-76
2021/06/22 11:56:36;;;;;;;3.70;2.20;;;;;;;;;;5108954;28;20507;-72
2021/06/22 11:59:02;;;;;;;4.37;2.50;;;;;;;;;;5090135;28;20417;-72
2021/06/22 12:01:28;;;;;;;5.00;2.70;;;;;;;;;;5090319;28;20413;-74
2021/06/22 12:03:54;;;;;;;5.53;2.70;;;;;;;;;;5090591;28;20449;-72
2021/06/22 12:06:24;;;;;;;6.83;2.50;;;;;;;;;;5089766;28;20926;-75
2021/06/22 12:08:50;;;;;;;3.93;2.63;;;;;;;;;;5089539;28;20413;-74
2021/06/22 12:11:31;;;;;;;7.20;2.50;;;;;;;;;;5089478;28;20841;-76
2021/06/22 12:13:57;;;;;;;6.23;2.53;;;;;;;;;;5089430;28;20538;-71
2021/06/22 12:16:25;;;;;;;4.73;2.60;;;;;;;;;;5089477;28;20443;-75
2021/06/22 12:18:53;;;;;;;5.40;3.10;;;;;;;;;;5092823;28;20413;-72
2021/06/22 12:21:20;;;;;;;4.63;2.40;;;;;;;;;;5103007;28;20811;-75
2021/06/22 12:23:46;;;;;;;6.60;2.70;;;;;;;;;;5087434;28;20421;-73
2021/06/22 12:26:12;;;;;;;5.60;2.60;;;;;;;;;;5089408;28;20465;-74
2021/06/22 12:28:38;;;;;;;5.73;2.77;;;;;;;;;;5097705;28;20568;-74
2021/06/22 12:31:05;;;;;;;3.90;2.47;;;;;;;;;;5094568;28;21226;-75
2021/06/22 12:33:36;;;;;;;4.23;2.83;;;;;;;;;;5105718;28;20436;-73
2021/06/22 12:36:04;;;;;;;4.70;2.10;;;;;;;;;;5096299;28;20417;-72
2021/06/22 12:38:30;;;;;;;3.50;2.23;;;;;;;;;;5105963;27;20417;-73
2021/06/22 12:40:58;;;;;;;6.03;2.30;;;;;;;;;;5108187;28;20457;-75
2021/06/22 12:43:41;;;;;;;4.43;2.43;;;;;;;;;;5109561;28;20432;-76
2021/06/22 12:46:07;;;;;;;8.10;2.40;;;;;;;;;;5110021;28;20456;-74
2021/06/22 12:48:33;;;;;;;5.03;2.20;;;;;;;;;;5106661;28;20424;-72
2021/06/22 12:50:59;;;;;;;4.90;2.63;;;;;;;;;;5110195;28;20765;-74
2021/06/22 12:53:25;;;;;;;4.93;2.30;;;;;;;;;;5109501;28;20420;-74
2021/06/22 12:55:55;;;;;;;4.37;2.50;;;;;;;;;;5109206;28;20935;-70
2021/06/22 12:58:24;;;;;;;4.73;2.30;;;;;;;;;;5092953;28;20418;-73
2021/06/22 13:00:50;;;;;;;4.70;2.50;;;;;;;;;;5089118;28;20458;-73
2021/06/22 13:03:18;;;;;;;3.70;2.10;;;;;;;;;;5088689;28;20445;-75
2021/06/22 13:05:45;;;;;;;5.63;2.77;;;;;;;;;;5089052;28;20594;-76
2021/06/22 13:08:17;;;;;;;3.37;2.40;;;;;;;;;;5088686;28;20432;-75
2021/06/22 13:10:51;;;;;;;4.83;2.70;;;;;;;;;;5089097;28;20413;-73
2021/06/22 13:13:24;;;;;;;4.83;2.57;;;;;;;;;;5088604;28;20525;-75
2021/06/22 13:15:50;;;;;;;5.77;2.80;;;;;;;;;;5089076;28;20482;-72
2021/06/22 13:18:17;;;;;;;4.47;2.97;;;;;;;;;;5088564;28;20429;-75
2021/06/22 13:20:43;;;;;;;6.27;2.90;;;;;;;;;;5088816;28;20409;-74
2021/06/22 13:23:10;;;;;;;4.00;2.67;;;;;;;;;;5088413;28;20499;-75
2021/06/22 13:25:37;;;;;;;6.87;2.97;;;;;;;;;;5089123;28;20555;-76
2021/06/22 13:28:16;;;;;;;4.60;2.50;;;;;;;;;;5092486;28;20412;-74
2021/06/22 13:30:49;;;;;;;7.90;2.90;;;;;;;;;;5094644;28;20424;-74
2021/06/22 13:33:19;;;;;;;3.77;2.57;;;;;;;;;;5097482;28;20442;-75
2021/06/22 13:35:51;;;;;;;4.93;2.80;;;;;;;;;;5111066;28;20424;-75
2021/06/22 13:38:22;;;;;;;6.07;2.60;;;;;;;;;;5122188;27;20415;-75
2021/06/22 13:40:53;;;;;;;7.70;2.67;;;;;;;;;;5113013;28;20455;-74
2021/06/22 13:43:22;;;;;;;3.27;2.07;;;;;;;;;;5101316;27;20922;-73
2021/06/22 13:45:49;;;;;;;4.53;2.20;;;;;;;;;;5092385;28;20500;-77
2021/06/22 13:48:27;;;;;;;5.50;2.53;;;;;;;;;;5100020;28;20920;-74
2021/06/22 13:50:54;;;;;;;4.80;2.50;;;;;;;;;;5112610;28;20476;-74
2021/06/22 13:53:27;;;;;;;5.57;2.37;;;;;;;;;;5111998;27;20428;-76
2021/06/22 13:55:54;;;;;;;5.00;2.07;;;;;;;;;;5112448;28;20540;-75
2021/06/22 13:58:21;;;;;;;3.70;2.13;;;;;;;;;;5109786;28;20424;-75
2021/06/22 14:00:48;;;;;;;5.77;2.40;;;;;;;;;;5105984;28;20417;-74
2021/06/22 14:03:15;;;;;;;4.73;2.27;;;;;;;;;;5111751;28;20504;-73
2021/06/22 14:05:42;;;;;;;4.80;2.00;;;;;;;;;;5112145;27;20558;-74
2021/06/22 14:08:08;;;;;;;4.67;2.37;;;;;;;;;;5111890;28;20524;-72
2021/06/22 14:10:35;;;;;;;6.50;2.60;;;;;;;;;;5112186;28;20412;-71
2021/06/22 14:13:03;;;;;;;5.30;2.23;;;;;;;;;;5110306;28;20543;-74
2021/06/22 14:15:29;;;;;;;3.43;1.90;;;;;;;;;;5103072;27;20425;-74
2021/06/22 14:17:57;;;;;;;3.60;2.23;;;;;;;;;;5111861;28;20411;-75
2021/06/22 14:20:24;;;;;;;4.70;2.40;;;;;;;;;;5106521;28;20828;-73
2021/06/22 14:22:50;;;;;;;7.63;2.40;;;;;;;;;;5111605;28;20825;-72
2021/06/22 14:25:16;;;;;;;4.80;2.17;;;;;;;;;;5107371;27;20465;-74
2021/06/22 14:27:42;;;;;;;6.60;2.30;;;;;;;;;;5111531;27;20417;-73
2021/06/22 14:30:12;;;;;;;4.20;2.13;;;;;;;;;;5111803;28;20416;-72
2021/06/22 14:32:39;;;;;;;4.07;1.83;;;;;;;;;;5111659;28;20485;-75
2021/06/22 14:35:06;;;;;;;5.33;2.07;;;;;;;;;;5111198;28;20500;-78
2021/06/22 14:37:34;;;;;;;5.43;2.40;;;;;;;;;;5116771;27;20812;-72
2021/06/22 14:40:00;;;;;;;7.03;2.50;;;;;;;;;;5111555;28;20412;-73
2021/06/22 14:42:26;;;;;;;4.90;2.10;;;;;;;;;;5111335;28;20442;-74
2021/06/22 14:44:53;;;;;;;3.67;2.13;;;;;;;;;;5110787;28;20467;-74
2021/06/22 14:47:19;;;;;;;7.60;2.63;;;;;;;;;;5109926;28;20428;-73